createdAt,value
2018-09-13T00:00:29.148Z,8.67
2018-09-13T00:02:57.864Z,7.60
2018-09-13T00:05:26.365Z,7.80
2018-09-13T00:07:54.929Z,7.73
2018-09-13T00:10:23.328Z,8.13
2018-09-13T00:12:52.179Z,7.60
2018-09-13T00:15:20.924Z,8.50
2018-09-13T00:17:49.649Z,6.93
2018-09-13T00:20:18.058Z,6.80
2018-09-13T00:22:46.588Z,6.60
2018-09-13T00:25:15.111Z,6.17
2018-09-13T00:27:43.634Z,6.40
2018-09-13T00:30:12.452Z,7.37
2018-09-13T00:32:41.059Z,5.80
2018-09-13T00:35:09.504Z,7.27
2018-09-13T00:37:38.706Z,6.57
2018-09-13T00:40:07.313Z,6.67
2018-09-13T00:42:35.880Z,6.23
2018-09-13T00:45:04.329Z,5.90
2018-09-13T00:47:32.785Z,4.87
2018-09-13T00:50:01.199Z,5.27
2018-09-13T00:52:29.617Z,5.07
2018-09-13T00:54:58.086Z,5.83
2018-09-13T00:57:27.058Z,5.70
2018-09-13T00:59:55.699Z,5.57
2018-09-13T01:02:24.137Z,4.97
2018-09-13T01:04:52.567Z,4.57
2018-09-13T01:07:21.352Z,5.60
2018-09-13T01:09:52.040Z,4.80
2018-09-13T01:12:22.191Z,5.47
2018-09-13T01:14:50.581Z,5.30
2018-09-13T01:17:19.106Z,6.03
2018-09-13T01:19:48.077Z,4.73
2018-09-13T01:22:16.680Z,4.70
2018-09-13T01:24:45.271Z,5.57
2018-09-13T01:27:13.766Z,5.10
2018-09-13T01:29:42.828Z,6.13
2018-09-13T01:32:11.339Z,5.03
2018-09-13T01:34:39.969Z,5.20
2018-09-13T01:37:08.371Z,4.23
2018-09-13T01:39:36.873Z,4.90
2018-09-13T01:42:05.286Z,4.93
2018-09-13T01:44:34.498Z,4.60
2018-09-13T01:47:03.058Z,4.27
2018-09-13T01:49:31.473Z,4.00
2018-09-13T01:51:59.876Z,5.53
2018-09-13T01:54:28.322Z,4.47
2018-09-13T01:56:56.748Z,4.77
2018-09-13T01:59:25.173Z,4.40
2018-09-13T02:01:54.500Z,5.27
2018-09-13T02:04:29.740Z,5.00
2018-09-13T02:06:58.405Z,4.67
2018-09-13T02:09:27.490Z,4.20
2018-09-13T02:11:56.033Z,5.10
2018-09-13T02:14:24.445Z,4.70
2018-09-13T02:16:53.233Z,4.60
2018-09-13T02:19:21.653Z,4.50
2018-09-13T02:21:50.136Z,4.80
2018-09-13T02:24:18.612Z,4.67
2018-09-13T02:26:47.045Z,4.50
2018-09-13T02:29:15.510Z,4.53
2018-09-13T02:31:43.974Z,4.37
2018-09-13T02:34:12.959Z,4.63
2018-09-13T02:36:41.602Z,4.77
2018-09-13T02:39:10.926Z,4.60
2018-09-13T02:41:39.914Z,4.20
2018-09-13T02:44:09.700Z,4.67
2018-09-13T02:46:38.920Z,3.90
2018-09-13T02:49:07.426Z,4.33
2018-09-13T02:51:35.910Z,4.63
2018-09-13T02:54:04.515Z,3.67
2018-09-13T02:56:33.060Z,4.10
2018-09-13T02:59:01.490Z,4.37
2018-09-13T03:01:29.918Z,4.80
2018-09-13T03:03:58.372Z,4.13
2018-09-13T03:06:26.844Z,4.70
2018-09-13T03:08:55.297Z,4.20
2018-09-13T03:11:23.858Z,4.00
2018-09-13T03:13:52.569Z,4.10
2018-09-13T03:16:20.973Z,4.00
2018-09-13T03:18:49.656Z,4.40
2018-09-13T03:21:22.432Z,4.00
2018-09-13T03:23:50.959Z,3.70
2018-09-13T03:26:20.225Z,4.47
2018-09-13T03:28:48.866Z,4.87
2018-09-13T03:31:17.386Z,4.17
2018-09-13T03:33:45.873Z,3.77
2018-09-13T03:36:14.386Z,3.83
2018-09-13T03:38:42.779Z,3.80
2018-09-13T03:41:11.179Z,4.27
2018-09-13T03:43:39.913Z,4.13
2018-09-13T03:46:08.692Z,3.80
2018-09-13T03:48:37.134Z,3.93
2018-09-13T03:51:05.901Z,3.70
2018-09-13T03:53:34.317Z,3.67
2018-09-13T03:56:02.753Z,3.77
2018-09-13T03:58:31.808Z,4.07
2018-09-13T04:01:00.185Z,4.60
2018-09-13T04:03:29.084Z,4.63
2018-09-13T04:05:57.563Z,3.83
2018-09-13T04:08:25.958Z,4.13
2018-09-13T04:10:54.498Z,3.87
2018-09-13T04:13:23.838Z,4.33
2018-09-13T04:15:52.234Z,4.77
2018-09-13T04:18:21.281Z,4.20
2018-09-13T04:20:49.709Z,4.40
2018-09-13T04:23:18.092Z,4.60
2018-09-13T04:25:46.667Z,4.23
2018-09-13T04:28:15.108Z,4.23
2018-09-13T04:30:43.529Z,4.53
2018-09-13T04:33:12.024Z,3.97
2018-09-13T04:35:40.528Z,4.23
2018-09-13T04:38:09.037Z,4.60
2018-09-13T04:40:37.529Z,4.40
2018-09-13T04:43:05.953Z,4.43
2018-09-13T04:45:34.555Z,4.87
2018-09-13T04:48:03.009Z,4.67
2018-09-13T04:50:32.080Z,4.80
2018-09-13T04:53:00.644Z,3.93
2018-09-13T04:55:29.751Z,4.13
2018-09-13T04:57:58.161Z,3.90
2018-09-13T05:00:26.670Z,4.73
2018-09-13T05:02:55.121Z,4.40
2018-09-13T05:05:23.858Z,4.37
2018-09-13T05:07:52.296Z,4.43
2018-09-13T05:10:21.923Z,4.13
2018-09-13T05:12:50.518Z,4.37
2018-09-13T05:15:19.585Z,4.07
2018-09-13T05:17:47.981Z,4.00
2018-09-13T05:20:16.537Z,4.13
2018-09-13T05:22:45.156Z,4.53
2018-09-13T05:25:13.709Z,4.30
2018-09-13T05:27:42.152Z,3.80
2018-09-13T05:30:10.743Z,3.97
2018-09-13T05:32:39.311Z,4.10
2018-09-13T05:35:07.708Z,4.07
2018-09-13T05:37:36.317Z,4.20
2018-09-13T05:40:05.149Z,3.67
2018-09-13T05:42:33.705Z,3.40
2018-09-13T05:45:02.168Z,4.00
2018-09-13T05:47:34.856Z,3.60
2018-09-13T05:50:03.385Z,3.23
2018-09-13T05:52:32.265Z,3.50
2018-09-13T05:55:00.860Z,3.77
2018-09-13T05:57:29.356Z,3.73
2018-09-13T05:59:57.812Z,3.67
2018-09-13T06:02:26.428Z,3.70
2018-09-13T06:04:55.012Z,3.37
2018-09-13T06:07:23.661Z,3.60
2018-09-13T06:09:52.157Z,3.33
2018-09-13T06:12:20.613Z,2.93
2018-09-13T06:14:49.266Z,3.80
2018-09-13T06:17:18.575Z,3.70
2018-09-13T06:19:47.177Z,4.07
2018-09-13T06:22:15.644Z,4.53
2018-09-13T06:24:44.185Z,4.80
2018-09-13T06:27:12.729Z,4.77
2018-09-13T06:29:41.300Z,5.00
2018-09-13T06:32:09.900Z,5.00
2018-09-13T06:34:39.182Z,5.00
2018-09-13T06:37:08.571Z,5.80
2018-09-13T06:39:37.330Z,6.00
2018-09-13T06:42:05.905Z,5.40
2018-09-13T06:44:35.157Z,5.70
2018-09-13T06:47:04.033Z,6.10
2018-09-13T06:49:32.627Z,5.60
2018-09-13T06:52:01.260Z,6.03
2018-09-13T06:54:29.897Z,6.60
2018-09-13T06:56:58.382Z,5.20
2018-09-13T06:59:27.005Z,5.97
2018-09-13T07:01:55.833Z,5.93
2018-09-13T07:04:24.444Z,5.00
2018-09-13T07:06:52.817Z,5.53
2018-09-13T07:09:21.363Z,6.00
2018-09-13T07:11:49.751Z,5.50
2018-09-13T07:14:18.937Z,4.80
2018-09-13T07:16:48.079Z,4.67
2018-09-13T07:19:16.595Z,4.90
2018-09-13T07:21:44.978Z,5.30
2018-09-13T07:24:13.357Z,6.17
2018-09-13T07:26:41.883Z,5.40
2018-09-13T07:29:10.484Z,5.10
2018-09-13T07:31:38.922Z,4.90
2018-09-13T07:34:07.735Z,4.73
2018-09-13T07:36:36.213Z,4.63
2018-09-13T07:39:08.235Z,5.57
2018-09-13T07:41:37.552Z,4.00
2018-09-13T07:44:08.805Z,4.00
2018-09-13T07:46:37.258Z,3.90
2018-09-13T07:49:05.957Z,4.17
2018-09-13T07:51:34.775Z,3.60
2018-09-13T07:54:03.134Z,4.10
2018-09-13T07:56:32.187Z,4.27
2018-09-13T07:59:00.489Z,4.13
2018-09-13T08:01:29.276Z,4.53
2018-09-13T08:03:57.779Z,3.40
2018-09-13T08:06:26.165Z,4.00
2018-09-13T08:08:54.531Z,3.67
2018-09-13T08:11:22.892Z,3.40
2018-09-13T08:13:51.302Z,3.83
2018-09-13T08:16:20.288Z,3.37
2018-09-13T08:18:48.674Z,3.30
2018-09-13T08:21:18.283Z,3.50
2018-09-13T08:23:46.740Z,3.57
2018-09-13T08:26:15.164Z,3.60
2018-09-13T08:28:43.561Z,3.63
2018-09-13T08:31:12.650Z,2.70
2018-09-13T08:33:41.384Z,2.83
2018-09-13T08:36:10.424Z,3.17
2018-09-13T08:38:39.259Z,2.97
2018-09-13T08:41:07.633Z,3.17
2018-09-13T08:43:35.971Z,2.90
2018-09-13T08:46:04.311Z,3.13
2018-09-13T08:48:32.806Z,3.10
2018-09-13T08:51:01.290Z,3.10
2018-09-13T08:53:29.656Z,3.03
2018-09-13T08:55:58.809Z,2.80
2018-09-13T08:58:27.868Z,2.77
2018-09-13T09:00:56.240Z,2.50
2018-09-13T09:03:24.605Z,2.90
2018-09-13T09:05:53.066Z,2.77
2018-09-13T09:08:21.453Z,2.53
2018-09-13T09:10:49.831Z,2.30
2018-09-13T09:13:18.236Z,2.73
2018-09-13T09:15:46.655Z,2.70
2018-09-13T09:18:14.994Z,2.47
2018-09-13T09:20:43.968Z,2.70
2018-09-13T09:23:12.533Z,3.20
2018-09-13T09:25:41.024Z,2.70
2018-09-13T09:28:09.421Z,2.60
2018-09-13T09:30:37.799Z,2.40
2018-09-13T09:33:06.384Z,1.93
2018-09-13T09:35:36.243Z,2.13
2018-09-13T09:38:05.336Z,2.67
2018-09-13T09:40:33.735Z,2.10
2018-09-13T09:43:02.118Z,2.03
2018-09-13T09:45:30.545Z,2.13
2018-09-13T09:47:58.950Z,2.60
2018-09-13T09:50:27.930Z,2.33
2018-09-13T09:52:56.485Z,2.53
2018-09-13T09:55:24.865Z,2.60
2018-09-13T09:57:53.858Z,3.00
2018-09-13T10:00:27.732Z,2.67
2018-09-13T10:02:56.116Z,2.63
2018-09-13T10:05:24.509Z,3.00
2018-09-13T10:07:52.880Z,2.37
2018-09-13T10:10:21.263Z,2.30
2018-09-13T10:12:49.940Z,2.60
2018-09-13T10:15:23.768Z,2.80
2018-09-13T10:17:57.541Z,2.50
2018-09-13T10:20:31.248Z,2.50
2018-09-13T10:24:08.791Z,2.70
2018-09-13T10:26:42.510Z,2.47
2018-09-13T10:29:16.258Z,2.40
2018-09-13T10:31:50.063Z,2.77
2018-09-13T10:34:24.563Z,2.50
2018-09-13T10:36:58.424Z,2.30
2018-09-13T10:39:32.537Z,2.70
2018-09-13T10:42:06.370Z,2.57
2018-09-13T10:44:40.263Z,2.40
2018-09-13T10:47:14.892Z,2.40
2018-09-13T10:49:48.627Z,2.10
2018-09-13T10:52:19.569Z,2.23
2018-09-13T10:54:48.051Z,2.30
2018-09-13T10:57:21.924Z,2.47
2018-09-13T10:59:50.578Z,3.17
2018-09-13T11:02:18.938Z,2.10
2018-09-13T11:04:47.840Z,2.67
2018-09-13T11:07:16.253Z,2.23
2018-09-13T11:09:44.650Z,2.30
2018-09-13T11:12:13.020Z,2.03
2018-09-13T11:14:56.739Z,1.67
2018-09-13T11:17:25.990Z,1.93
2018-09-13T11:19:55.440Z,1.90
2018-09-13T11:22:23.844Z,2.13
2018-09-13T11:24:52.440Z,2.07
2018-09-13T11:27:20.993Z,2.10
2018-09-13T11:29:49.381Z,2.40
2018-09-13T11:32:17.769Z,1.40
2018-09-13T11:34:46.401Z,1.63
2018-09-13T11:37:14.927Z,2.00
2018-09-13T11:39:43.423Z,1.80
2018-09-13T11:42:12.614Z,1.97
2018-09-13T11:44:40.973Z,1.90
2018-09-13T11:47:09.398Z,1.90
2018-09-13T11:49:37.816Z,1.70
2018-09-13T11:52:06.333Z,2.47
2018-09-13T11:54:34.749Z,1.67
2018-09-13T11:57:03.536Z,1.70
2018-09-13T11:59:32.276Z,2.00
2018-09-13T12:02:00.841Z,1.90
2018-09-13T12:04:30.303Z,1.70
2018-09-13T12:06:58.717Z,1.60
2018-09-13T12:12:02.070Z,1.60
2018-09-13T12:14:31.021Z,1.77
2018-09-13T12:16:59.418Z,1.60
2018-09-13T12:19:27.814Z,1.73
2018-09-13T12:21:56.871Z,1.67
2018-09-13T12:24:25.276Z,1.60
2018-09-13T12:26:53.813Z,1.67
2018-09-13T12:29:22.824Z,1.70
2018-09-13T12:31:51.198Z,1.50
2018-09-13T12:34:19.754Z,1.77
2018-09-13T12:36:48.228Z,1.50
2018-09-13T12:39:16.614Z,1.87
2018-09-13T12:41:45.784Z,1.63
2018-09-13T12:44:14.184Z,1.80
2018-09-13T12:46:43.656Z,1.50
2018-09-13T12:49:12.676Z,1.30
2018-09-13T12:51:41.374Z,1.57
2018-09-13T12:54:09.786Z,1.70
2018-09-13T12:56:38.232Z,1.70
2018-09-13T12:59:06.661Z,1.70
2018-09-13T13:01:35.614Z,2.03
2018-09-13T13:04:04.032Z,1.60
2018-09-13T13:06:32.777Z,2.07
2018-09-13T13:09:01.172Z,1.83
2018-09-13T13:11:29.630Z,1.80
2018-09-13T13:13:58.202Z,1.67
2018-09-13T13:16:26.661Z,1.80
2018-09-13T13:18:55.029Z,2.00
2018-09-13T13:21:23.569Z,1.90
2018-09-13T13:23:51.936Z,1.60
2018-09-13T13:26:20.502Z,2.00
2018-09-13T13:28:49.238Z,1.70
2018-09-13T13:31:17.812Z,1.77
2018-09-13T13:33:46.241Z,1.80
2018-09-13T13:36:14.981Z,2.63
2018-09-13T13:38:43.358Z,1.70
2018-09-13T13:41:12.042Z,2.53
2018-09-13T13:43:42.006Z,2.20
2018-09-13T13:46:10.514Z,2.00
2018-09-13T13:48:38.998Z,1.80
2018-09-13T13:51:08.027Z,1.80
2018-09-13T13:53:36.485Z,2.13
2018-09-13T13:56:04.924Z,2.00
2018-09-13T13:58:33.364Z,2.00
2018-09-13T14:01:01.909Z,1.80
2018-09-13T14:03:30.534Z,2.30
2018-09-13T14:05:59.221Z,2.50
2018-09-13T14:08:27.622Z,2.03
2018-09-13T14:10:56.094Z,2.07
2018-09-13T14:13:24.549Z,2.03
2018-09-13T14:15:52.984Z,2.07
2018-09-13T14:18:21.455Z,2.47
2018-09-13T14:20:49.934Z,2.30
2018-09-13T14:23:18.399Z,2.43
2018-09-13T14:25:47.533Z,2.30
2018-09-13T14:28:16.516Z,2.20
2018-09-13T14:30:44.976Z,2.20
2018-09-13T14:33:13.655Z,2.53
2018-09-13T14:35:42.067Z,2.20
2018-09-13T14:38:10.491Z,2.30
2018-09-13T14:40:38.939Z,2.10
2018-09-13T14:43:07.452Z,2.40
2018-09-13T14:45:35.865Z,2.63
2018-09-13T14:48:05.667Z,2.60
2018-09-13T14:50:34.304Z,2.60
2018-09-13T14:53:03.089Z,2.43
2018-09-13T14:55:31.733Z,2.40
2018-09-13T14:58:01.043Z,2.53
2018-09-13T15:00:29.568Z,2.53
2018-09-13T15:02:58.085Z,2.73
2018-09-13T15:05:27.598Z,2.60
2018-09-13T15:07:55.973Z,2.30
2018-09-13T15:10:24.614Z,2.80
2018-09-13T15:12:53.139Z,2.93
2018-09-13T15:15:22.454Z,2.30
2018-09-13T15:17:51.639Z,3.27
2018-09-13T15:20:20.668Z,2.43
2018-09-13T15:22:49.196Z,4.27
2018-09-13T15:25:17.968Z,3.07
2018-09-13T15:27:46.593Z,3.50
2018-09-13T15:30:15.617Z,3.20
2018-09-13T15:32:44.001Z,2.30
2018-09-13T15:35:12.406Z,2.50
2018-09-13T15:37:41.137Z,2.50
2018-09-13T15:40:10.769Z,2.50
2018-09-13T15:42:39.258Z,2.53
2018-09-13T15:45:08.459Z,2.77
2018-09-13T15:47:36.992Z,2.40
2018-09-13T15:50:05.585Z,2.43
2018-09-13T15:52:40.871Z,2.07
2018-09-13T15:55:09.944Z,2.30
2018-09-13T15:57:38.469Z,2.40
2018-09-13T16:00:07.924Z,2.40
2018-09-13T16:02:37.509Z,2.13
2018-09-13T16:05:05.982Z,2.23
2018-09-13T16:07:34.725Z,2.07
2018-09-13T16:10:03.189Z,2.57
2018-09-13T16:12:32.348Z,2.40
2018-09-13T16:15:00.773Z,2.13
2018-09-13T16:17:29.176Z,2.20
2018-09-13T16:19:57.792Z,2.30
2018-09-13T16:22:26.203Z,2.50
2018-09-13T16:24:54.748Z,2.10
2018-09-13T16:27:24.059Z,2.07
2018-09-13T16:29:52.716Z,2.53
2018-09-13T16:32:23.288Z,2.27
2018-09-13T16:34:52.773Z,2.13
2018-09-13T16:37:26.763Z,1.93
2018-09-13T16:40:05.044Z,2.10
2018-09-13T16:42:51.806Z,2.67
2018-09-13T16:45:21.407Z,2.50
2018-09-13T16:47:55.226Z,2.93
2018-09-13T16:50:23.829Z,2.70
2018-09-13T16:52:52.312Z,2.57
2018-09-13T16:55:20.743Z,2.80
2018-09-13T16:57:49.195Z,2.60
2018-09-13T17:00:18.832Z,2.83
2018-09-13T17:02:47.624Z,2.67
2018-09-13T17:05:16.121Z,3.20
2018-09-13T17:07:44.928Z,3.80
2018-09-13T17:10:13.925Z,3.70
2018-09-13T17:12:42.411Z,4.90
2018-09-13T17:15:10.833Z,4.30
2018-09-13T17:17:39.525Z,4.77
2018-09-13T17:20:08.072Z,5.03
2018-09-13T17:22:36.954Z,5.70
2018-09-13T17:25:05.512Z,4.87
2018-09-13T17:27:34.811Z,5.17
2018-09-13T17:30:03.850Z,6.03
2018-09-13T17:32:32.414Z,6.50
2018-09-13T17:35:00.981Z,7.67
2018-09-13T17:37:29.542Z,6.50
2018-09-13T17:39:58.166Z,7.03
2018-09-13T17:42:26.828Z,6.40
2018-09-13T17:44:55.244Z,6.83
2018-09-13T17:47:23.841Z,6.50
2018-09-13T17:49:52.374Z,7.77
2018-09-13T17:52:20.950Z,10.83
2018-09-13T17:54:49.482Z,9.63
2018-09-13T17:57:18.081Z,9.57
2018-09-13T17:59:46.615Z,7.30
2018-09-13T18:02:15.053Z,8.17
2018-09-13T18:04:43.474Z,9.13
2018-09-13T18:07:12.466Z,8.10
2018-09-13T18:09:41.329Z,8.10
2018-09-13T18:12:09.718Z,7.87
2018-09-13T18:14:38.115Z,9.17
2018-09-13T18:17:06.693Z,8.00
2018-09-13T18:19:35.692Z,8.20
2018-09-13T18:22:04.254Z,8.20
2018-09-13T18:24:32.854Z,8.53
2018-09-13T18:27:01.252Z,8.83
2018-09-13T18:29:29.842Z,11.13
2018-09-13T18:31:58.313Z,9.30
2018-09-13T18:34:26.760Z,9.53
2018-09-13T18:36:55.179Z,9.83
2018-09-13T18:39:23.689Z,12.77
2018-09-13T18:41:52.430Z,12.63
2018-09-13T18:44:27.682Z,12.50
2018-09-13T18:47:14.033Z,13.83
2018-09-13T18:54:26.950Z,21.93
2018-09-13T18:56:59.662Z,18.13
2018-09-13T18:59:41.711Z,18.70
2018-09-13T19:02:15.428Z,17.53
2018-09-13T19:04:52.660Z,16.77
2018-09-13T19:07:21.247Z,15.90
2018-09-13T19:09:53.258Z,15.20
2018-09-13T19:12:21.737Z,15.63
2018-09-13T19:14:50.237Z,14.70
2018-09-13T19:17:18.923Z,13.10
2018-09-13T19:19:52.095Z,14.20
2018-09-13T19:22:21.720Z,16.07
2018-09-13T19:24:50.602Z,13.13
2018-09-13T19:27:21.885Z,13.70
2018-09-13T19:30:02.314Z,12.27
2018-09-13T19:32:34.248Z,12.93
2018-09-13T19:35:03.498Z,10.40
2018-09-13T19:37:35.761Z,13.57
2018-09-13T19:40:05.783Z,14.07
2018-09-13T19:42:39.014Z,12.47
2018-09-13T19:45:14.937Z,12.10
2018-09-13T19:47:43.776Z,11.83
2018-09-13T19:50:16.731Z,13.23
2018-09-13T19:52:45.293Z,12.67
2018-09-13T19:55:15.558Z,10.87
2018-09-13T19:57:45.081Z,10.80
2018-09-13T20:00:14.653Z,12.10
2018-09-13T20:02:45.113Z,12.33
2018-09-13T20:05:14.181Z,13.10
2018-09-13T20:07:42.983Z,11.53
2018-09-13T20:10:12.780Z,13.20
2018-09-13T20:12:41.449Z,13.03
2018-09-13T20:15:09.980Z,13.10
2018-09-13T20:17:38.768Z,12.83
2018-09-13T20:20:07.375Z,14.50
2018-09-13T20:22:36.691Z,12.60
2018-09-13T20:25:06.275Z,14.23
2018-09-13T20:27:34.799Z,11.57
2018-09-13T20:30:03.484Z,11.83
2018-09-13T20:32:32.180Z,12.47
2018-09-13T20:35:01.895Z,12.33
2018-09-13T20:37:30.770Z,11.03
2018-09-13T20:39:59.352Z,13.00
2018-09-13T20:42:29.421Z,12.30
2018-09-13T20:44:59.581Z,12.50
2018-09-13T20:47:29.412Z,12.50
2018-09-13T20:50:03.523Z,11.57
2018-09-13T20:52:35.114Z,11.73
2018-09-13T20:55:04.192Z,13.57
2018-09-13T20:57:39.864Z,12.67
2018-09-13T21:00:09.260Z,14.03
2018-09-13T21:02:38.792Z,13.20
2018-09-13T21:05:07.744Z,13.97
2018-09-13T21:07:37.074Z,12.60
2018-09-13T21:10:11.142Z,13.67
2018-09-13T21:12:39.622Z,13.97
2018-09-13T21:15:08.855Z,13.53
2018-09-13T21:17:37.497Z,12.70
2018-09-13T21:20:06.474Z,11.10
2018-09-13T21:22:34.928Z,11.77
2018-09-13T21:25:03.769Z,12.60
2018-09-13T21:27:33.564Z,13.10
2018-09-13T21:30:02.688Z,11.93
2018-09-13T21:32:31.768Z,12.53
2018-09-13T21:35:00.757Z,12.73
2018-09-13T21:37:29.845Z,13.43
2018-09-13T21:40:00.801Z,69.87
2018-09-13T21:42:30.683Z,121.37
2018-09-13T21:45:06.532Z,133.83
2018-09-13T21:47:36.983Z,158.67
2018-09-13T21:50:05.929Z,180.80
2018-09-13T21:52:34.477Z,156.43
2018-09-13T21:55:03.422Z,133.13
2018-09-13T21:57:32.612Z,117.17
2018-09-13T22:00:01.137Z,106.30
2018-09-13T22:02:29.880Z,95.07
2018-09-13T22:04:58.719Z,98.70
2018-09-13T22:07:27.278Z,85.00
2018-09-13T22:09:55.700Z,80.23
2018-09-13T22:12:24.313Z,80.90
2018-09-13T22:14:52.753Z,78.10
2018-09-13T22:17:21.898Z,69.93
2018-09-13T22:19:50.762Z,67.60
2018-09-13T22:22:19.335Z,62.37
2018-09-13T22:24:47.960Z,58.77
2018-09-13T22:27:16.508Z,57.30
2018-09-13T22:29:44.946Z,55.07
2018-09-13T22:32:13.860Z,50.43
2018-09-13T22:34:42.452Z,52.17
2018-09-13T22:37:10.906Z,50.87
2018-09-13T22:39:39.412Z,48.07
2018-09-13T22:42:07.812Z,46.27
2018-09-13T22:44:39.363Z,42.97
2018-09-13T22:47:08.134Z,41.53
2018-09-13T22:49:36.631Z,37.63
2018-09-13T22:52:05.553Z,38.17
2018-09-13T22:54:34.120Z,36.73
2018-09-13T22:57:02.536Z,33.97
2018-09-13T22:59:31.198Z,33.70
2018-09-13T23:01:59.633Z,32.70
2018-09-13T23:04:28.352Z,31.47
2018-09-13T23:06:57.223Z,30.00
2018-09-13T23:09:26.400Z,29.27
2018-09-13T23:11:54.833Z,28.93
2018-09-13T23:14:23.279Z,25.83
2018-09-13T23:16:51.713Z,26.80
2018-09-13T23:19:21.141Z,26.33
2018-09-13T23:21:50.368Z,25.20
2018-09-13T23:24:18.816Z,23.47
2018-09-13T23:26:48.328Z,22.73
2018-09-13T23:29:16.816Z,21.23
2018-09-13T23:31:45.337Z,20.87
2018-09-13T23:34:13.939Z,20.73
2018-09-13T23:36:43.197Z,19.93
2018-09-13T23:39:11.760Z,19.73
2018-09-13T23:41:41.253Z,18.63
2018-09-13T23:44:09.888Z,17.43
2018-09-13T23:46:38.481Z,16.80
2018-09-13T23:49:07.038Z,17.37
2018-09-13T23:51:35.541Z,16.43
2018-09-13T23:54:04.108Z,16.37
2018-09-13T23:56:33.233Z,15.07
2018-09-13T23:59:01.674Z,15.17
